Accueil
METAR-TAF:

METAR-TAF

Aéroports :

Ørsta-Volda, Norvège

latitude: 62-11N, longitude: 006-04E, altitude: 7 m

Observation

Le bulletin a été fait il y a 30 minutes, à 17:50 UTC
Vent 2 kt de direction variable
Température 3°C
Humidité 93%
Pression 1015 hPa
Visibilité: 4000 m
Quelques nuages à une hauteur de 600 ft
Nuages épars à une hauteur de 1600 ft
Nuages fragmentés à une hauteur de 2100 ft
pluie, bruine, brume

METAR: ENOV 261750Z VRB02KT 4000 RADZ BR FEW006 SCT016 BKN021 03/02 Q1015 RMK WIND 2175FT 17011KT

Heure: 19:20 (18:20 UTC)


TAF: absent

Observations et prévisions météorologiques de plus de 4000 aéroports (messages METAR et TAF).

Les stations disponibles sont représentées par des disques jaunes et rouges sur la carte.

Passer la souris dessus pour voir le nom de la station.

Cliquer dessus pour voir les observations et prévisions météorologiques.

Pour changer de carte: cliquez sur les boutons verts avec une croix noire pour zoomer, sur le bouton vert avec un tiret pour effectuer un zoom arrière, ou sur les flèches vertes pour les cartes adjacentes.


METAR-TAF: